createdAt,value
2019-04-26T00:00:51.913Z,13.60
2019-04-26T00:03:28.298Z,13.30
2019-04-26T00:05:58.980Z,13.50
2019-04-26T00:08:29.418Z,13.30
2019-04-26T00:11:12.461Z,13.40
2019-04-26T00:14:20.731Z,13.50
2019-04-26T00:16:57.880Z,13.50
2019-04-26T00:19:28.545Z,13.10
2019-04-26T00:21:59.404Z,13.10
2019-04-26T00:24:30.116Z,13.10
2019-04-26T00:27:01.111Z,13.20
2019-04-26T00:29:31.514Z,12.90
2019-04-26T00:32:02.265Z,13.00
2019-04-26T00:34:32.843Z,13.00
2019-04-26T00:37:03.458Z,12.70
2019-04-26T00:39:33.892Z,12.90
2019-04-26T00:42:04.350Z,13.10
2019-04-26T00:44:34.912Z,12.80
2019-04-26T00:47:06.310Z,12.80
2019-04-26T00:49:43.451Z,12.70
2019-04-26T00:52:10.293Z,12.90
2019-04-26T00:54:41.628Z,12.80
2019-04-26T00:57:14.501Z,12.80
2019-04-26T00:59:45.330Z,12.70
2019-04-26T01:02:22.693Z,12.90
2019-04-26T01:04:53.110Z,12.80
2019-04-26T01:07:23.722Z,13.00
2019-04-26T01:09:54.186Z,13.10
2019-04-26T01:12:24.620Z,13.30
2019-04-26T01:14:54.999Z,13.40
2019-04-26T01:17:26.720Z,13.30
2019-04-26T01:19:58.586Z,13.40
2019-04-26T01:22:32.688Z,13.20
2019-04-26T01:25:05.010Z,13.10
2019-04-26T01:27:37.367Z,13.10
2019-04-26T01:30:10.008Z,13.10
2019-04-26T01:32:43.109Z,12.90
2019-04-26T01:35:13.743Z,12.80
2019-04-26T01:37:46.402Z,13.20
2019-04-26T01:40:19.871Z,13.10
2019-04-26T01:43:05.171Z,12.90
2019-04-26T01:45:49.356Z,12.70
2019-04-26T01:48:46.108Z,12.70
2019-04-26T01:51:32.910Z,12.70
2019-04-26T01:54:03.836Z,13.00
2019-04-26T01:56:36.062Z,13.30
2019-04-26T01:59:09.596Z,13.20
2019-04-26T02:02:00.092Z,13.10
2019-04-26T02:04:32.578Z,13.40
2019-04-26T02:07:02.938Z,13.60
2019-04-26T02:09:33.514Z,13.20
2019-04-26T02:12:03.831Z,13.30
2019-04-26T02:14:34.480Z,13.10
2019-04-26T02:17:04.910Z,12.70
2019-04-26T02:19:35.419Z,12.80
2019-04-26T02:22:25.944Z,13.30
2019-04-26T02:24:56.795Z,13.50
2019-04-26T02:27:28.894Z,13.20
2019-04-26T02:30:01.106Z,13.20
2019-04-26T02:32:33.204Z,13.20
2019-04-26T02:35:04.296Z,13.70
2019-04-26T02:37:36.864Z,13.50
2019-04-26T02:40:12.577Z,13.30
2019-04-26T02:42:43.809Z,13.50
2019-04-26T02:45:56.796Z,13.00
2019-04-26T02:48:49.336Z,13.00
2019-04-26T02:51:28.434Z,13.10
2019-04-26T02:54:07.111Z,13.20
2019-04-26T02:56:40.516Z,13.00
2019-04-26T02:59:25.990Z,13.20
2019-04-26T03:02:22.017Z,13.20
2019-04-26T03:04:56.649Z,13.30
2019-04-26T03:07:51.210Z,13.40
2019-04-26T03:10:33.811Z,13.40
2019-04-26T03:13:06.970Z,13.60
2019-04-26T03:16:04.455Z,13.60
2019-04-26T03:19:00.549Z,13.60
2019-04-26T03:21:59.078Z,13.80
2019-04-26T03:24:37.195Z,13.50
2019-04-26T03:27:35.876Z,13.70
2019-04-26T03:30:21.453Z,13.40
2019-04-26T03:33:17.957Z,13.20
2019-04-26T03:36:17.215Z,13.30
2019-04-26T03:39:44.480Z,13.30
2019-04-26T03:42:53.279Z,13.50
2019-04-26T03:45:46.221Z,13.50
2019-04-26T03:48:29.480Z,13.50
2019-04-26T03:51:06.949Z,13.50
2019-04-26T03:53:50.936Z,13.20
2019-04-26T03:57:04.548Z,13.20
2019-04-26T03:59:53.031Z,13.10
2019-04-26T04:02:58.721Z,13.10
2019-04-26T04:05:40.180Z,13.00
2019-04-26T04:08:14.631Z,13.00
2019-04-26T04:10:51.019Z,13.10
2019-04-26T04:13:51.408Z,13.20
2019-04-26T04:16:32.559Z,13.10
2019-04-26T04:19:30.404Z,13.00
2019-04-26T04:22:06.158Z,12.70
2019-04-26T04:24:47.458Z,12.60
2019-04-26T04:27:43.544Z,12.70
2019-04-26T04:30:57.599Z,12.50
2019-04-26T04:33:52.656Z,12.20
2019-04-26T04:36:31.127Z,12.30
2019-04-26T04:39:24.505Z,12.70
2019-04-26T04:42:17.446Z,12.60
2019-04-26T04:45:05.427Z,12.20
2019-04-26T04:47:52.524Z,12.40
2019-04-26T04:50:42.540Z,12.60
2019-04-26T04:53:47.847Z,12.50
2019-04-26T04:56:43.642Z,12.60
2019-04-26T04:59:24.819Z,12.60
2019-04-26T05:02:29.771Z,12.50
2019-04-26T05:06:07.399Z,12.20
2019-04-26T05:09:09.331Z,12.40
2019-04-26T05:11:54.421Z,12.40
2019-04-26T05:15:02.412Z,12.20
2019-04-26T05:17:56.099Z,12.10
2019-04-26T05:20:34.613Z,12.40
2019-04-26T05:23:40.675Z,12.50
2019-04-26T05:27:07.098Z,12.20
2019-04-26T05:30:17.798Z,12.20
2019-04-26T05:33:14.095Z,11.80
2019-04-26T05:35:53.158Z,11.70
2019-04-26T05:39:14.723Z,11.90
2019-04-26T05:42:35.467Z,11.80
2019-04-26T05:45:56.073Z,12.00
2019-04-26T05:49:15.224Z,12.10
2019-04-26T05:52:22.026Z,11.90
2019-04-26T05:55:41.034Z,11.70
2019-04-26T05:58:46.322Z,11.60
2019-04-26T06:02:07.727Z,11.80
2019-04-26T06:04:53.512Z,11.70
2019-04-26T06:07:54.592Z,11.70
2019-04-26T06:10:44.692Z,11.80
2019-04-26T06:13:55.733Z,11.90
2019-04-26T06:17:03.965Z,11.70
2019-04-26T06:20:06.582Z,12.00
2019-04-26T06:23:11.074Z,12.00
2019-04-26T06:25:57.619Z,11.80
2019-04-26T06:28:47.798Z,11.70
2019-04-26T06:31:59.122Z,11.90
2019-04-26T06:34:57.143Z,12.00
2019-04-26T06:37:42.550Z,11.90
2019-04-26T06:40:24.659Z,11.70
2019-04-26T06:43:32.104Z,11.70
2019-04-26T06:46:43.271Z,11.90
2019-04-26T06:49:30.380Z,12.00
2019-04-26T06:52:09.233Z,11.70
2019-04-26T06:54:56.404Z,11.80
2019-04-26T06:58:18.670Z,11.70
2019-04-26T07:01:23.772Z,11.80
2019-04-26T07:04:29.391Z,11.70
2019-04-26T07:07:54.063Z,11.70
2019-04-26T07:10:53.130Z,11.70
2019-04-26T07:13:51.953Z,11.80
2019-04-26T07:16:44.271Z,12.10
2019-04-26T07:20:09.200Z,11.90
2019-04-26T07:23:09.833Z,11.80
2019-04-26T07:26:45.354Z,11.80
2019-04-26T07:29:42.642Z,11.70
2019-04-26T07:32:41.671Z,11.80
2019-04-26T07:35:20.891Z,11.90
2019-04-26T07:38:16.322Z,11.70
2019-04-26T07:41:30.637Z,11.50
2019-04-26T07:44:46.426Z,11.80
2019-04-26T07:48:18.223Z,12.00
2019-04-26T07:51:39.449Z,11.70
2019-04-26T07:55:00.415Z,11.80
2019-04-26T07:58:19.690Z,11.80
2019-04-26T08:00:58.913Z,11.80
2019-04-26T08:03:40.290Z,11.70
2019-04-26T08:06:22.582Z,11.80
2019-04-26T08:09:06.073Z,11.80
2019-04-26T08:11:42.623Z,11.90
2019-04-26T08:14:17.483Z,11.80
2019-04-26T08:17:19.427Z,11.80
2019-04-26T08:20:02.113Z,11.90
2019-04-26T08:22:34.895Z,11.90
2019-04-26T08:25:08.562Z,12.00
2019-04-26T08:27:41.931Z,12.00
2019-04-26T08:30:18.603Z,12.00
2019-04-26T08:32:54.755Z,12.20
2019-04-26T08:35:29.450Z,12.10
2019-04-26T08:38:08.055Z,12.10
2019-04-26T08:40:38.915Z,12.00
2019-04-26T08:43:30.792Z,12.00
2019-04-26T08:46:36.460Z,12.10
2019-04-26T08:49:21.049Z,12.10
2019-04-26T08:51:55.771Z,11.90
2019-04-26T08:54:29.561Z,12.00
2019-04-26T08:57:07.450Z,11.90
2019-04-26T08:59:41.231Z,12.20
2019-04-26T09:02:41.023Z,12.20
2019-04-26T09:05:45.577Z,12.20
2019-04-26T09:08:19.348Z,12.20
2019-04-26T09:10:52.336Z,12.20
2019-04-26T09:13:28.795Z,12.10
2019-04-26T09:16:22.103Z,11.90
2019-04-26T09:18:55.261Z,11.80
2019-04-26T09:21:47.489Z,12.00
2019-04-26T09:24:25.068Z,12.10
2019-04-26T09:27:02.138Z,11.70
2019-04-26T09:29:39.955Z,11.70
2019-04-26T09:32:12.654Z,11.90
2019-04-26T09:34:43.191Z,11.80
2019-04-26T09:37:13.922Z,12.00
2019-04-26T09:39:44.432Z,12.20
2019-04-26T09:42:22.938Z,12.10
2019-04-26T09:45:00.252Z,12.10
2019-04-26T09:47:42.289Z,12.10
2019-04-26T09:50:25.035Z,11.90
2019-04-26T09:52:58.089Z,12.00
2019-04-26T09:55:35.340Z,12.00
2019-04-26T09:57:59.910Z,12.00
2019-04-26T10:00:31.067Z,12.10
2019-04-26T10:03:05.519Z,11.70
2019-04-26T10:05:33.927Z,11.70
2019-04-26T10:08:08.247Z,11.80
2019-04-26T10:10:37.103Z,11.90
2019-04-26T10:13:17.828Z,11.90
2019-04-26T10:16:02.611Z,12.10
2019-04-26T10:18:31.408Z,12.40
2019-04-26T10:21:01.775Z,12.20
2019-04-26T10:23:32.168Z,12.00
2019-04-26T10:26:02.672Z,12.10
2019-04-26T10:28:34.321Z,12.40
2019-04-26T10:31:04.733Z,12.60
2019-04-26T10:33:36.561Z,12.40
2019-04-26T10:36:07.181Z,12.40
2019-04-26T10:38:37.855Z,12.70
2019-04-26T10:41:08.898Z,13.10
2019-04-26T10:43:39.639Z,12.80
2019-04-26T10:46:09.987Z,12.70
2019-04-26T10:48:41.382Z,12.70
2019-04-26T10:51:13.391Z,12.70
2019-04-26T10:54:01.560Z,12.70
2019-04-26T10:56:54.834Z,12.70
2019-04-26T10:59:44.207Z,12.80
2019-04-26T11:02:17.330Z,12.70
2019-04-26T11:04:47.730Z,12.70
2019-04-26T11:07:18.285Z,12.70
2019-04-26T11:09:48.781Z,12.60
2019-04-26T11:12:20.462Z,12.90
2019-04-26T11:14:53.267Z,12.60
2019-04-26T11:17:22.763Z,13.00
2019-04-26T11:19:53.067Z,12.90
2019-04-26T11:22:29.207Z,13.00
2019-04-26T11:24:58.847Z,12.80
2019-04-26T11:27:29.132Z,12.70
2019-04-26T11:30:11.140Z,12.60
2019-04-26T11:32:33.192Z,12.90
2019-04-26T11:35:04.011Z,13.20
2019-04-26T11:37:34.446Z,13.40
2019-04-26T11:40:05.576Z,13.20
2019-04-26T11:42:36.216Z,13.10
2019-04-26T11:45:10.794Z,13.00
2019-04-26T11:47:54.201Z,13.00
2019-04-26T11:50:16.265Z,13.10
2019-04-26T11:52:44.911Z,13.10
2019-04-26T11:55:15.453Z,13.10
2019-04-26T11:57:47.578Z,13.00
2019-04-26T12:00:27.500Z,12.70
2019-04-26T12:02:57.651Z,12.80
2019-04-26T12:05:47.144Z,12.50
2019-04-26T12:08:22.292Z,12.60
2019-04-26T12:10:52.547Z,12.90
2019-04-26T12:13:25.013Z,12.70
2019-04-26T12:15:55.727Z,12.70
2019-04-26T12:18:26.257Z,12.70
2019-04-26T12:20:57.189Z,12.80
2019-04-26T12:23:28.914Z,12.70
2019-04-26T12:25:59.241Z,12.60
2019-04-26T12:28:29.560Z,12.60
2019-04-26T12:31:00.182Z,12.60
2019-04-26T12:33:30.518Z,12.50
2019-04-26T12:36:01.151Z,12.60
2019-04-26T12:38:31.410Z,12.60
2019-04-26T12:41:01.914Z,12.60
2019-04-26T12:43:32.244Z,12.90
2019-04-26T12:46:22.743Z,13.00
2019-04-26T12:48:51.388Z,13.00
2019-04-26T12:51:21.735Z,13.20
2019-04-26T12:53:52.088Z,13.10
2019-04-26T12:56:22.443Z,13.30
2019-04-26T12:58:52.815Z,13.30
2019-04-26T13:01:23.251Z,13.40
2019-04-26T13:04:06.499Z,13.70
2019-04-26T13:06:42.835Z,13.80
2019-04-26T13:09:17.177Z,13.60
2019-04-26T13:12:12.705Z,13.80
2019-04-26T13:15:00.634Z,13.90
2019-04-26T13:17:37.084Z,13.70
2019-04-26T13:20:08.162Z,13.90
2019-04-26T13:22:45.823Z,13.90
2019-04-26T13:25:16.015Z,14.10
2019-04-26T13:27:45.585Z,14.10
2019-04-26T13:30:15.555Z,14.20
2019-04-26T13:32:49.251Z,14.40
2019-04-26T13:35:18.079Z,14.60
2019-04-26T13:37:48.455Z,14.60
2019-04-26T13:40:19.123Z,14.70
2019-04-26T13:42:51.455Z,15.10
2019-04-26T13:45:40.857Z,15.20
2019-04-26T13:48:39.157Z,14.70
2019-04-26T13:51:09.258Z,14.40
2019-04-26T13:53:39.631Z,14.90
2019-04-26T13:56:10.207Z,14.60
2019-04-26T13:58:40.671Z,14.50
2019-04-26T14:01:14.518Z,14.40
2019-04-26T14:03:44.022Z,14.40
2019-04-26T14:06:14.575Z,14.20
2019-04-26T14:08:44.941Z,14.00
2019-04-26T14:11:20.502Z,14.00
2019-04-26T14:13:55.484Z,14.10
2019-04-26T14:16:27.726Z,13.80
2019-04-26T14:18:59.512Z,13.90
2019-04-26T14:21:33.111Z,14.00
2019-04-26T14:24:39.657Z,13.80
2019-04-26T14:27:17.177Z,13.80
2019-04-26T14:29:47.808Z,13.90
2019-04-26T14:32:22.950Z,13.70
2019-04-26T14:34:54.437Z,13.70
2019-04-26T14:37:25.031Z,13.80
2019-04-26T14:39:59.084Z,13.60
2019-04-26T14:42:34.347Z,13.60
2019-04-26T14:45:02.195Z,13.60
2019-04-26T14:47:47.346Z,13.60
2019-04-26T14:50:15.662Z,13.70
2019-04-26T14:52:46.106Z,13.80
2019-04-26T14:55:20.780Z,13.70
2019-04-26T14:57:51.378Z,13.70
2019-04-26T15:00:26.315Z,13.90
2019-04-26T15:03:03.143Z,13.70
2019-04-26T15:05:46.486Z,13.70
2019-04-26T15:08:17.239Z,13.70
2019-04-26T15:10:49.139Z,13.70
2019-04-26T15:13:21.086Z,13.50
2019-04-26T15:15:53.861Z,13.40
2019-04-26T15:18:29.077Z,13.40
2019-04-26T15:20:59.343Z,13.40
2019-04-26T15:23:32.977Z,13.80
2019-04-26T15:26:03.188Z,13.70
2019-04-26T15:28:35.869Z,13.80
2019-04-26T15:31:06.166Z,14.00
2019-04-26T15:33:36.882Z,13.80
2019-04-26T15:36:11.176Z,13.80
2019-04-26T15:38:44.899Z,13.70
2019-04-26T15:41:33.543Z,13.70
2019-04-26T15:44:13.634Z,13.80
2019-04-26T15:47:05.655Z,13.70
2019-04-26T15:49:52.912Z,13.70
2019-04-26T15:52:26.552Z,13.80
2019-04-26T15:54:58.909Z,14.10
2019-04-26T15:57:32.325Z,14.00
2019-04-26T16:00:03.998Z,14.00
2019-04-26T16:02:33.779Z,14.10
2019-04-26T16:05:05.339Z,14.10
2019-04-26T16:07:35.906Z,14.20
2019-04-26T16:10:06.758Z,14.50
2019-04-26T16:12:38.455Z,14.60
2019-04-26T16:15:14.627Z,14.20
2019-04-26T16:17:43.319Z,14.20
2019-04-26T16:20:14.784Z,14.20
2019-04-26T16:22:45.270Z,14.30
2019-04-26T16:25:15.846Z,14.20
2019-04-26T16:27:46.281Z,14.00
2019-04-26T16:30:39.155Z,13.90
2019-04-26T16:33:34.707Z,14.10
2019-04-26T16:36:06.298Z,14.10
2019-04-26T16:38:37.608Z,14.10
2019-04-26T16:41:07.972Z,14.10
2019-04-26T16:43:44.705Z,14.10
2019-04-26T16:46:12.595Z,14.20
2019-04-26T16:48:44.529Z,14.00
2019-04-26T16:51:15.204Z,13.90
2019-04-26T16:54:03.593Z,13.90
2019-04-26T16:56:25.920Z,13.90
2019-04-26T16:58:53.606Z,14.00
2019-04-26T17:01:23.432Z,13.90
2019-04-26T17:03:54.043Z,13.90
2019-04-26T17:06:24.564Z,13.90
2019-04-26T17:09:50.411Z,14.20
2019-04-26T17:11:30.203Z,14.10
2019-04-26T17:14:04.312Z,14.00
2019-04-26T17:16:34.779Z,14.00
2019-04-26T17:19:04.338Z,14.10
2019-04-26T17:21:44.179Z,14.20
2019-04-26T17:24:32.500Z,14.00
2019-04-26T17:27:09.561Z,14.10
2019-04-26T17:29:37.835Z,14.20
2019-04-26T17:32:15.534Z,14.10
2019-04-26T17:34:43.284Z,14.00
2019-04-26T17:37:17.200Z,14.00
2019-04-26T17:39:47.580Z,14.00
2019-04-26T17:42:17.979Z,14.00
2019-04-26T17:44:48.795Z,14.10
2019-04-26T17:47:20.236Z,14.30
2019-04-26T17:49:52.430Z,14.40
2019-04-26T17:52:22.903Z,14.40
2019-04-26T17:54:53.500Z,14.60
2019-04-26T17:57:33.727Z,14.50
2019-04-26T18:00:07.323Z,14.30
2019-04-26T18:02:41.181Z,14.00
2019-04-26T18:05:03.363Z,13.80
2019-04-26T18:07:43.345Z,13.80
2019-04-26T18:10:06.377Z,14.00
2019-04-26T18:12:40.745Z,14.00
2019-04-26T18:15:12.059Z,13.90
2019-04-26T18:18:18.496Z,13.80
2019-04-26T18:21:23.143Z,13.70
2019-04-26T18:23:57.016Z,13.60
2019-04-26T18:26:26.143Z,13.70
2019-04-26T18:28:56.447Z,14.10
2019-04-26T18:31:28.601Z,13.80
2019-04-26T18:34:00.644Z,13.90
2019-04-26T18:36:32.311Z,13.90
2019-04-26T18:39:06.749Z,14.10
2019-04-26T18:41:37.212Z,13.80
2019-04-26T18:44:07.518Z,14.00
2019-04-26T18:47:08.919Z,14.00
2019-04-26T18:49:39.420Z,14.10
2019-04-26T18:52:09.886Z,14.10
2019-04-26T18:54:47.883Z,14.10
2019-04-26T18:57:18.094Z,14.10
2019-04-26T18:59:51.047Z,13.70
2019-04-26T19:02:23.369Z,13.60
2019-04-26T19:04:54.251Z,13.70
2019-04-26T19:07:31.835Z,13.80
2019-04-26T19:10:00.679Z,13.70
2019-04-26T19:12:29.144Z,13.50
2019-04-26T19:15:40.003Z,13.60
2019-04-26T19:18:13.351Z,13.80
2019-04-26T19:20:57.352Z,13.70
2019-04-26T19:23:29.987Z,13.80
2019-04-26T19:26:01.810Z,13.80
2019-04-26T19:28:32.319Z,13.90
2019-04-26T19:31:05.332Z,13.80
2019-04-26T19:33:35.879Z,13.80
2019-04-26T19:36:06.899Z,13.90
2019-04-26T19:38:38.362Z,13.70
2019-04-26T19:41:11.941Z,13.80
2019-04-26T19:43:43.524Z,13.80
2019-04-26T19:46:25.537Z,13.80
2019-04-26T19:49:33.792Z,13.80
2019-04-26T19:52:27.042Z,13.80
2019-04-26T19:55:07.468Z,13.90
2019-04-26T19:57:44.455Z,13.80
2019-04-26T20:00:15.598Z,13.80
2019-04-26T20:02:46.301Z,13.50
2019-04-26T20:05:19.812Z,13.30
2019-04-26T20:07:51.855Z,13.10
2019-04-26T20:10:23.296Z,13.00
2019-04-26T20:12:55.459Z,13.00
2019-04-26T20:15:28.628Z,12.90
2019-04-26T20:18:03.711Z,13.00
2019-04-26T20:20:36.251Z,12.90
2019-04-26T20:23:07.870Z,13.10
2019-04-26T20:25:38.567Z,12.90
2019-04-26T20:28:09.158Z,12.90
2019-04-26T20:31:07.136Z,12.80
2019-04-26T20:33:35.043Z,12.90
2019-04-26T20:36:05.694Z,12.70
2019-04-26T20:38:43.826Z,12.50
2019-04-26T20:41:08.271Z,12.60
2019-04-26T20:43:44.383Z,12.70
2019-04-26T20:46:15.169Z,12.60
2019-04-26T20:48:43.155Z,12.60
2019-04-26T20:51:13.834Z,12.60
2019-04-26T20:53:44.338Z,12.40
2019-04-26T20:56:18.357Z,12.40
2019-04-26T20:58:47.263Z,12.50
2019-04-26T21:01:18.071Z,12.40
2019-04-26T21:03:48.324Z,12.40
2019-04-26T21:06:18.744Z,12.50
2019-04-26T21:08:52.193Z,12.50
2019-04-26T21:11:22.690Z,12.50
2019-04-26T21:13:52.957Z,12.40
2019-04-26T21:16:23.426Z,12.30
2019-04-26T21:18:53.691Z,12.40
2019-04-26T21:21:24.135Z,12.30
2019-04-26T21:23:54.479Z,12.30
2019-04-26T21:26:54.479Z,12.40
2019-04-26T21:29:29.995Z,12.30
2019-04-26T21:32:43.716Z,12.30
2019-04-26T21:35:15.736Z,12.40
2019-04-26T21:37:53.981Z,12.40
2019-04-26T21:40:27.142Z,12.30
2019-04-26T21:42:59.481Z,12.40
2019-04-26T21:45:31.007Z,12.60
2019-04-26T21:48:02.509Z,12.80
2019-04-26T21:50:38.607Z,12.80
2019-04-26T21:53:06.935Z,13.10
2019-04-26T21:55:38.704Z,13.10
2019-04-26T21:58:10.174Z,13.20
2019-04-26T22:00:55.717Z,13.10
2019-04-26T22:03:26.735Z,13.10
2019-04-26T22:05:58.248Z,13.20
2019-04-26T22:08:32.966Z,13.20
2019-04-26T22:11:03.669Z,13.20
2019-04-26T22:13:44.697Z,13.20
2019-04-26T22:16:32.003Z,13.10
2019-04-26T22:19:12.707Z,13.10
2019-04-26T22:22:17.932Z,13.20
2019-04-26T22:24:48.689Z,13.20
2019-04-26T22:27:21.803Z,13.10
2019-04-26T22:29:51.862Z,13.10
2019-04-26T22:32:24.242Z,13.10
2019-04-26T22:34:54.718Z,13.00
2019-04-26T22:37:29.945Z,13.10
2019-04-26T22:39:57.306Z,13.20
2019-04-26T22:42:32.989Z,13.30
2019-04-26T22:45:10.531Z,13.20
2019-04-26T22:47:53.587Z,13.10
2019-04-26T22:50:25.098Z,12.90
2019-04-26T22:52:55.612Z,12.90
2019-04-26T22:55:27.483Z,12.90
2019-04-26T22:57:58.226Z,13.00
2019-04-26T23:00:33.108Z,13.10
2019-04-26T23:03:07.146Z,13.10
2019-04-26T23:05:39.141Z,13.10
2019-04-26T23:08:09.182Z,13.20
2019-04-26T23:10:48.323Z,13.20
2019-04-26T23:13:28.684Z,13.10
2019-04-26T23:16:17.998Z,12.90
2019-04-26T23:19:03.707Z,12.70
2019-04-26T23:21:37.427Z,12.40
2019-04-26T23:24:11.438Z,12.70
2019-04-26T23:26:41.677Z,12.80
2019-04-26T23:29:16.240Z,13.00
2019-04-26T23:31:45.020Z,12.90
2019-04-26T23:34:15.351Z,12.80
2019-04-26T23:36:49.175Z,12.60
2019-04-26T23:39:17.772Z,12.60
2019-04-26T23:41:48.213Z,12.30
2019-04-26T23:44:18.624Z,12.50
2019-04-26T23:46:48.923Z,12.50
2019-04-26T23:49:20.461Z,12.20
2019-04-26T23:51:50.865Z,12.50
2019-04-26T23:54:21.199Z,12.60
2019-04-26T23:56:55.772Z,12.60
2019-04-26T23:59:24.778Z,12.80
